Terminal Aerodrome Forecast
Issued by NWS Pueblo, CO

Home | Current Version | Previous Version | Text Only | Print | Product List | Glossary On
Versions: 1 2 3 4 5 6 7 8 9 10 11 12 13 14 15 16 17 18 19 20 21 22 23 24 25 26 27 28 29
000
FTUS45 KPUB 220526
TAFCOS
TAF
KCOS 220526Z 2206/2306 32013KT P6SM BKN040 BKN150
     FM221200 33014KT P6SM SCT120 SCT200
     FM221800 33012KT P6SM SCT200
     FM230100 36007KT P6SM SKC=

USA.gov is the U.S. government's official web portal to all federal, state and local government web resources and services.